KFUL/FUL METAR and TAF weather

Enter ICAO airport designator
Station Type Date Time Source
KFUL METAR 2022/12/10 00:53 UTC NOAA

KFUL 100053Z 22004KT 10SM FEW250 15/07 A3009 RMK AO2 SLP189 T01500067


Station Type Date Time Source
KFUL Decoded METAR 2022/12/10 00:53 UTC NOAA

FULLERTON MUNICIPAL AIRPORT , CA, United States (KFUL) 33-52N 117-59W 35M
Dec 09, 2022 - 07:53 PM EST / 2022.12.10 0053 UTC
Wind: from the SW (220 degrees) at 5 MPH (4 KT):0
Visibility: 10 mile(s):0
Sky conditions: mostly clear
Temperature: 59.0 F (15.0 C)
Dew Point: 44.1 F (6.7 C)
Relative Humidity: 57%
Pressure (altimeter): 30.09 in. Hg (1018 hPa)
ob: KFUL 100053Z 22004KT 10SM FEW250 15/07 A3009 RMK AO2 SLP189 T01500067
cycle: 1

Station Type Date Time Source
KFUL TAF UTC NOAA

Error!

Example: see airport list